createdAt,value
2019-02-21T00:01:30.743Z,74.60
2019-02-21T00:08:28.369Z,75.30
2019-02-21T00:15:26.859Z,75.30
2019-02-21T00:22:26.123Z,75.40
2019-02-21T00:29:23.499Z,75.40
2019-02-21T00:36:21.135Z,75.50
2019-02-21T00:43:18.666Z,75.90
2019-02-21T00:50:15.702Z,75.10
2019-02-21T00:57:12.990Z,76.10
2019-02-21T01:04:10.721Z,76.20
2019-02-21T01:11:08.680Z,76.00
2019-02-21T01:18:06.165Z,76.70
2019-02-21T01:25:03.704Z,77.00
2019-02-21T01:32:00.847Z,76.50
2019-02-21T01:38:58.166Z,76.90
2019-02-21T01:45:54.968Z,77.10
2019-02-21T01:52:52.224Z,77.50
2019-02-21T01:59:50.709Z,77.30
2019-02-21T02:06:45.931Z,78.00
2019-02-21T02:13:50.137Z,78.40
2019-02-21T02:20:53.799Z,78.10
2019-02-21T02:27:51.339Z,78.60
2019-02-21T02:34:48.691Z,78.60
2019-02-21T02:41:45.600Z,78.30
2019-02-21T02:48:42.924Z,78.30
2019-02-21T02:55:39.640Z,79.30
2019-02-21T03:02:36.367Z,78.70
2019-02-21T03:09:33.364Z,78.40
2019-02-21T03:16:30.065Z,79.20
2019-02-21T03:23:27.539Z,79.30
2019-02-21T03:30:25.621Z,79.30
2019-02-21T03:37:22.931Z,78.40
2019-02-21T03:44:20.832Z,76.60
2019-02-21T03:51:18.447Z,75.50
2019-02-21T03:58:16.007Z,76.00
2019-02-21T04:05:12.792Z,75.50
2019-02-21T04:12:09.566Z,76.70
2019-02-21T04:19:07.327Z,77.20
2019-02-21T04:26:04.524Z,77.70
2019-02-21T04:33:02.124Z,78.30
2019-02-21T04:39:59.681Z,77.90
2019-02-21T04:46:57.348Z,76.90
2019-02-21T04:53:54.324Z,74.60
2019-02-21T05:00:51.583Z,73.70
2019-02-21T05:07:48.676Z,73.10
2019-02-21T05:14:33.607Z,71.60
2019-02-21T05:21:37.808Z,71.10
2019-02-21T05:28:35.248Z,69.70
2019-02-21T05:35:33.595Z,69.90
2019-02-21T05:42:35.594Z,68.90
2019-02-21T05:49:34.919Z,68.50
2019-02-21T05:56:51.369Z,68.60
2019-02-21T06:03:49.732Z,69.10
2019-02-21T06:11:07.200Z,70.00
2019-02-21T06:18:23.551Z,71.60
2019-02-21T06:25:22.414Z,72.50
2019-02-21T06:32:19.884Z,72.20
2019-02-21T06:39:16.654Z,71.60
2019-02-21T06:46:13.868Z,70.70
2019-02-21T06:53:11.319Z,69.70
2019-02-21T07:00:08.283Z,68.20
2019-02-21T07:07:05.076Z,65.80
2019-02-21T07:14:02.460Z,63.80
2019-02-21T07:20:59.118Z,64.00
2019-02-21T07:27:58.241Z,63.60
2019-02-21T07:34:54.607Z,62.50
2019-02-21T07:41:51.991Z,62.90
2019-02-21T07:48:49.197Z,57.60
2019-02-21T07:55:45.919Z,53.30
2019-02-21T08:02:43.650Z,42.60
2019-02-21T08:09:41.751Z,33.90
2019-02-21T08:16:38.937Z,36.60
2019-02-21T08:23:35.631Z,43.10
2019-02-21T08:30:33.109Z,45.50
2019-02-21T08:37:30.775Z,43.10
2019-02-21T08:44:28.899Z,39.90
2019-02-21T08:51:26.352Z,36.90
2019-02-21T08:58:23.884Z,34.80
2019-02-21T09:05:20.680Z,29.20
2019-02-21T09:12:21.154Z,26.50
2019-02-21T09:19:18.008Z,26.00
2019-02-21T09:26:14.732Z,25.20
2019-02-21T09:33:17.543Z,23.70
2019-02-21T09:40:10.963Z,24.30
2019-02-21T09:47:08.323Z,26.30
2019-02-21T09:54:05.827Z,28.70
2019-02-21T10:01:02.703Z,26.80
2019-02-21T10:07:59.678Z,24.80
2019-02-21T10:14:56.859Z,24.60
2019-02-21T10:21:55.143Z,24.60
2019-02-21T10:28:51.945Z,25.40
2019-02-21T10:35:49.343Z,25.80
2019-02-21T10:42:46.330Z,27.00
2019-02-21T10:49:43.728Z,28.20
2019-02-21T10:56:40.455Z,27.60
2019-02-21T11:03:37.196Z,27.40
2019-02-21T11:10:34.329Z,28.50
2019-02-21T11:17:31.443Z,29.30
2019-02-21T11:24:28.667Z,30.60
2019-02-21T11:31:27.748Z,32.30
2019-02-21T11:38:24.918Z,33.30
2019-02-21T11:45:21.887Z,32.50
2019-02-21T11:52:19.188Z,32.90
2019-02-21T11:59:16.895Z,32.80
2019-02-21T12:06:14.347Z,32.50
2019-02-21T12:13:11.670Z,31.90
2019-02-21T12:20:09.011Z,31.00
2019-02-21T12:27:06.355Z,31.20
2019-02-21T12:33:51.380Z,31.40
2019-02-21T12:40:36.418Z,31.80
2019-02-21T12:47:21.810Z,33.80
2019-02-21T12:54:19.244Z,34.10
2019-02-21T13:01:16.289Z,33.80
2019-02-21T13:08:01.246Z,34.80
2019-02-21T13:15:16.883Z,35.50
2019-02-21T13:22:21.230Z,36.70
2019-02-21T13:29:06.185Z,36.90
2019-02-21T13:36:10.668Z,36.80
2019-02-21T13:43:11.476Z,36.60
2019-02-21T13:49:56.365Z,35.70
2019-02-21T13:56:53.792Z,34.90
2019-02-21T14:03:50.896Z,35.70
2019-02-21T14:10:48.312Z,36.10
2019-02-21T14:17:46.678Z,37.30
2019-02-21T14:24:44.367Z,37.80
2019-02-21T14:31:41.852Z,37.60
2019-02-21T14:38:28.134Z,37.00
2019-02-21T14:45:19.110Z,36.80
2019-02-21T14:52:04.186Z,35.90
2019-02-21T14:58:49.046Z,36.20
2019-02-21T15:05:34.013Z,36.60
2019-02-21T15:12:31.541Z,37.50
2019-02-21T15:19:28.849Z,39.30
2019-02-21T15:26:26.207Z,41.00
2019-02-21T15:33:23.158Z,41.30
2019-02-21T15:40:09.676Z,42.20
2019-02-21T15:47:13.948Z,41.70
2019-02-21T15:54:16.154Z,42.40
2019-02-21T16:01:14.375Z,42.60
2019-02-21T16:08:12.048Z,44.00
2019-02-21T16:15:08.897Z,44.10
2019-02-21T16:22:05.784Z,43.90
2019-02-21T16:29:02.704Z,43.90
2019-02-21T16:36:00.095Z,46.20
2019-02-21T16:42:57.075Z,48.80
2019-02-21T16:49:42.019Z,51.10
2019-02-21T16:56:27.048Z,51.60
2019-02-21T17:03:24.016Z,53.00
2019-02-21T17:10:21.661Z,54.60
2019-02-21T17:17:19.210Z,55.80
2019-02-21T17:24:16.766Z,57.20
2019-02-21T17:31:13.915Z,59.90
2019-02-21T17:37:58.894Z,60.10
2019-02-21T17:44:43.765Z,60.00
2019-02-21T17:51:28.712Z,58.20
2019-02-21T17:58:13.718Z,58.20
2019-02-21T18:04:58.595Z,58.50
2019-02-21T18:11:56.213Z,58.50
2019-02-21T18:18:52.981Z,58.70
2019-02-21T18:25:46.530Z,58.60
2019-02-21T18:32:31.407Z,60.30
2019-02-21T18:39:16.363Z,60.40
2019-02-21T18:46:13.275Z,60.50
2019-02-21T18:53:10.362Z,60.40
2019-02-21T19:00:07.687Z,59.70
2019-02-21T19:07:05.310Z,60.60
2019-02-21T19:14:02.635Z,60.70
2019-02-21T19:20:59.367Z,60.80
2019-02-21T19:27:44.522Z,60.80
2019-02-21T19:34:29.571Z,60.70
2019-02-21T19:41:14.632Z,61.10
2019-02-21T19:48:18.903Z,61.00
2019-02-21T19:55:16.315Z,60.50
2019-02-21T20:02:01.324Z,61.40
2019-02-21T20:08:46.275Z,62.00
2019-02-21T20:15:31.204Z,62.20
2019-02-21T20:22:16.214Z,62.50
2019-02-21T20:29:01.653Z,63.10
2019-02-21T20:35:47.883Z,63.60
2019-02-21T20:42:33.064Z,64.00
2019-02-21T20:49:18.145Z,63.50
2019-02-21T20:56:06.033Z,63.00
2019-02-21T21:02:49.991Z,62.80
2019-02-21T21:09:35.007Z,62.40
2019-02-21T21:16:32.545Z,62.50
2019-02-21T21:23:29.924Z,62.60
2019-02-21T21:30:26.822Z,62.40
2019-02-21T21:37:24.149Z,62.30
2019-02-21T21:44:21.252Z,62.60
2019-02-21T21:51:18.221Z,62.50
2019-02-21T21:58:15.368Z,62.00
2019-02-21T22:05:00.333Z,62.20
2019-02-21T22:11:45.381Z,61.80
2019-02-21T22:18:30.343Z,60.40
2019-02-21T22:25:17.759Z,61.80
2019-02-21T22:32:02.715Z,61.10
2019-02-21T22:38:47.648Z,61.80
2019-02-21T22:45:45.032Z,61.30
2019-02-21T22:52:42.267Z,61.50
2019-02-21T22:59:39.858Z,62.20
2019-02-21T23:06:37.203Z,62.50
2019-02-21T23:13:22.143Z,62.60
2019-02-21T23:20:26.347Z,62.30
2019-02-21T23:27:23.721Z,62.70
2019-02-21T23:34:22.131Z,62.70
2019-02-21T23:41:18.945Z,61.60
2019-02-21T23:48:17.332Z,61.40
2019-02-21T23:55:14.850Z,60.20
